LTAN

Konya Airport

Airport
ICAO code
LTAN
IATA Code
KYA
Summary
ICAO Region
EUR
ICAO Territory
Location

Konya,

Serving
Konya
Elevation
3381 ft
Coordinates
37° 59' 1" N , 32° 34' 37" E
Metar
LTAN 201550Z 22021KT 9999 SCT040 15/M00 Q1007 NOSIG

Runways

Designator Length Width Surface Rops
01L/19R 3348 45 ASP Yes/Yes
01R/19L 3348 45 CON Yes/Yes

Airport map

Aerial View

SKYbrary Partners:

Safety knowledge contributed by: